createdAt,value
2022-09-18T00:01:13.106Z,10.86
2022-09-18T00:04:04.836Z,10.85
2022-09-18T00:06:52.670Z,10.82
2022-09-18T00:09:40.539Z,10.79
2022-09-18T00:12:28.570Z,10.74
2022-09-18T00:15:16.208Z,10.69
2022-09-18T00:18:05.201Z,10.67
2022-09-18T00:20:53.506Z,10.63
2022-09-18T00:23:42.255Z,10.58
2022-09-18T00:26:30.596Z,10.55
2022-09-18T00:29:18.585Z,10.53
2022-09-18T00:32:06.426Z,10.50
2022-09-18T00:34:54.371Z,10.49
2022-09-18T00:37:42.283Z,10.49
2022-09-18T00:40:30.815Z,10.50
2022-09-18T00:43:26.896Z,10.52
2022-09-18T00:46:28.575Z,10.51
2022-09-18T00:49:26.377Z,10.46
2022-09-18T00:52:15.424Z,10.43
2022-09-18T00:55:09.906Z,10.41
2022-09-18T00:58:00.760Z,10.39
2022-09-18T01:00:48.618Z,10.35
2022-09-18T01:03:36.992Z,10.34
2022-09-18T01:06:36.884Z,10.33
2022-09-18T01:09:41.820Z,10.30
2022-09-18T01:12:51.884Z,10.24
2022-09-18T01:16:12.921Z,10.17
2022-09-18T01:19:14.746Z,10.10
2022-09-18T01:22:20.559Z,10.01
2022-09-18T01:25:50.052Z,9.92
2022-09-18T01:28:48.240Z,9.82
2022-09-18T01:31:50.703Z,9.73
2022-09-18T01:34:57.069Z,9.65
2022-09-18T01:38:05.482Z,9.57
2022-09-18T01:40:58.908Z,9.50
2022-09-18T01:43:53.059Z,9.43
2022-09-18T01:46:44.647Z,9.41
2022-09-18T01:49:42.066Z,9.42
2022-09-18T01:52:36.262Z,9.41
2022-09-18T01:55:28.542Z,9.40
2022-09-18T01:58:19.113Z,9.37
2022-09-18T02:01:16.239Z,9.35
2022-09-18T02:04:16.320Z,9.38
2022-09-18T02:07:14.732Z,9.38
2022-09-18T02:10:04.447Z,9.36
2022-09-18T02:12:56.688Z,9.32
2022-09-18T02:15:49.521Z,9.28
2022-09-18T02:18:45.582Z,9.22
2022-09-18T02:21:34.092Z,9.19
2022-09-18T02:24:25.876Z,9.18
2022-09-18T02:27:16.190Z,9.16
2022-09-18T02:30:06.708Z,9.19
2022-09-18T02:32:56.592Z,9.19
2022-09-18T02:35:50.719Z,9.19
2022-09-18T02:39:00.614Z,9.18
2022-09-18T02:42:02.156Z,9.17
2022-09-18T02:45:13.415Z,9.15
2022-09-18T02:48:29.098Z,9.08
2022-09-18T02:51:38.745Z,9.03
2022-09-18T02:54:45.825Z,8.99
2022-09-18T02:57:47.237Z,8.97
2022-09-18T03:00:36.106Z,8.98
2022-09-18T03:03:32.691Z,8.97
2022-09-18T03:06:25.035Z,8.99
2022-09-18T03:09:13.269Z,9.00
2022-09-18T03:12:04.350Z,8.98
2022-09-18T03:14:58.216Z,8.96
2022-09-18T03:17:46.028Z,8.94
2022-09-18T03:20:33.740Z,8.96
2022-09-18T03:23:26.173Z,8.95
2022-09-18T03:26:23.640Z,8.96
2022-09-18T03:29:13.319Z,9.00
2022-09-18T03:32:03.202Z,9.02
2022-09-18T03:34:58.189Z,9.07
2022-09-18T03:37:49.175Z,9.17
2022-09-18T03:40:47.490Z,9.23
2022-09-18T03:43:37.754Z,9.30
2022-09-18T03:46:26.624Z,9.40
2022-09-18T03:49:19.114Z,9.52
2022-09-18T03:52:08.015Z,9.57
2022-09-18T03:55:04.004Z,9.63
2022-09-18T03:58:24.099Z,9.67
2022-09-18T04:01:32.374Z,9.77
2022-09-18T04:04:39.019Z,9.81
2022-09-18T04:07:46.952Z,9.88
2022-09-18T04:11:07.414Z,9.93
2022-09-18T04:13:55.578Z,10.03
2022-09-18T04:16:44.739Z,10.12
2022-09-18T04:19:32.864Z,10.21
2022-09-18T04:22:21.860Z,10.32
2022-09-18T04:25:10.597Z,10.38
2022-09-18T04:28:00.571Z,10.46
2022-09-18T04:33:58.243Z,10.49
2022-09-18T04:36:46.632Z,10.54
2022-09-18T04:39:35.879Z,10.58
2022-09-18T04:42:24.998Z,10.71
2022-09-18T04:45:13.532Z,10.88
2022-09-18T04:48:01.907Z,11.07
2022-09-18T04:50:52.155Z,11.28
2022-09-18T04:53:40.728Z,11.45
2022-09-18T04:56:30.661Z,11.51
2022-09-18T04:59:19.319Z,11.64
2022-09-18T05:02:08.460Z,11.81
2022-09-18T05:04:57.217Z,11.94
2022-09-18T05:07:51.934Z,12.05
2022-09-18T05:10:43.039Z,12.16
2022-09-18T05:13:31.065Z,12.26
2022-09-18T05:16:25.156Z,12.38
2022-09-18T05:19:31.869Z,12.52
2022-09-18T05:22:25.426Z,12.60
2022-09-18T05:25:13.515Z,12.77
2022-09-18T05:28:03.518Z,12.90
2022-09-18T05:31:01.329Z,13.08
2022-09-18T05:33:57.930Z,13.16
2022-09-18T05:36:46.452Z,13.20
2022-09-18T05:39:34.418Z,13.23
2022-09-18T05:42:23.754Z,13.20
2022-09-18T05:45:11.617Z,13.26
2022-09-18T05:48:08.687Z,13.33
2022-09-18T05:50:57.001Z,13.38
2022-09-18T05:53:48.749Z,13.53
2022-09-18T05:56:40.145Z,13.62
2022-09-18T05:59:27.984Z,13.63
2022-09-18T06:02:18.059Z,13.55
2022-09-18T06:05:31.346Z,13.28
2022-09-18T06:08:19.975Z,13.10
2022-09-18T06:11:07.755Z,12.97
2022-09-18T06:13:55.900Z,12.93
2022-09-18T06:16:43.709Z,13.13
2022-09-18T06:19:34.980Z,13.48
2022-09-18T06:22:22.982Z,13.84
2022-09-18T06:25:11.732Z,14.09
2022-09-18T06:28:00.920Z,14.04
2022-09-18T06:30:48.658Z,14.04
2022-09-18T06:33:36.787Z,13.99
2022-09-18T06:36:24.680Z,13.99
2022-09-18T06:39:21.812Z,13.80
2022-09-18T06:42:12.693Z,13.76
2022-09-18T06:45:19.324Z,13.78
2022-09-18T06:48:10.901Z,13.79
2022-09-18T06:50:59.851Z,13.79
2022-09-18T06:53:51.884Z,13.78
2022-09-18T06:56:42.089Z,13.81
2022-09-18T06:59:32.969Z,13.85
2022-09-18T07:02:21.740Z,13.93
2022-09-18T07:05:20.494Z,14.13
2022-09-18T07:08:10.004Z,14.24
2022-09-18T07:11:02.851Z,14.37
2022-09-18T07:13:51.857Z,14.44
2022-09-18T07:16:40.379Z,14.52
2022-09-18T07:19:28.259Z,14.60
2022-09-18T07:22:16.667Z,14.66
2022-09-18T07:25:11.151Z,14.73
2022-09-18T07:28:08.395Z,14.81
2022-09-18T07:31:05.407Z,14.91
2022-09-18T07:33:54.680Z,15.10
2022-09-18T07:36:49.961Z,15.41
2022-09-18T07:39:38.549Z,15.78
2022-09-18T07:43:00.733Z,16.26
2022-09-18T07:45:49.637Z,16.78
2022-09-18T07:48:37.566Z,17.17
2022-09-18T07:51:36.241Z,17.69
2022-09-18T07:54:25.455Z,18.11
2022-09-18T07:57:33.855Z,18.47
2022-09-18T08:00:41.034Z,18.60
2022-09-18T08:03:30.021Z,18.72
2022-09-18T08:06:28.668Z,18.87
2022-09-18T08:09:36.806Z,19.02
2022-09-18T08:12:38.025Z,19.22
2022-09-18T08:15:44.439Z,19.54
2022-09-18T08:19:10.702Z,19.75
2022-09-18T08:22:08.070Z,19.79
2022-09-18T08:25:00.876Z,19.90
2022-09-18T08:27:48.962Z,20.04
2022-09-18T08:30:44.170Z,20.22
2022-09-18T08:33:33.972Z,20.15
2022-09-18T08:36:22.110Z,20.06
2022-09-18T08:39:18.982Z,20.02
2022-09-18T08:43:06.657Z,19.84
2022-09-18T08:46:07.117Z,19.73
2022-09-18T08:49:31.726Z,19.69
2022-09-18T08:52:26.627Z,19.92
2022-09-18T08:55:34.305Z,20.30
2022-09-18T08:58:55.072Z,20.67
2022-09-18T09:01:53.280Z,20.87
2022-09-18T09:04:41.692Z,21.17
2022-09-18T09:08:27.560Z,21.49
2022-09-18T09:11:39.011Z,21.57
2022-09-18T09:14:57.291Z,21.63
2022-09-18T09:18:10.077Z,21.53
2022-09-18T09:21:11.644Z,21.44
2022-09-18T09:24:21.373Z,21.51
2022-09-18T09:27:43.129Z,21.36
2022-09-18T09:30:59.685Z,21.16
2022-09-18T09:34:18.821Z,21.13
2022-09-18T09:37:33.177Z,21.12
2022-09-18T09:40:36.529Z,21.09
2022-09-18T09:43:37.912Z,20.79
2022-09-18T09:46:50.865Z,20.40
2022-09-18T09:49:58.687Z,20.14
2022-09-18T09:52:47.542Z,19.95
2022-09-18T09:55:48.603Z,19.75
2022-09-18T09:58:52.021Z,19.59
2022-09-18T10:02:25.435Z,19.35
2022-09-18T10:05:36.644Z,19.14
2022-09-18T10:08:39.155Z,19.15
2022-09-18T10:11:28.176Z,19.08
2022-09-18T10:14:24.184Z,18.99
2022-09-18T10:17:16.037Z,18.87
2022-09-18T10:20:05.629Z,18.86
2022-09-18T10:22:55.312Z,18.84
2022-09-18T10:25:50.393Z,18.79
2022-09-18T10:28:38.520Z,18.75
2022-09-18T10:31:51.709Z,18.65
2022-09-18T10:34:46.039Z,18.54
2022-09-18T10:37:40.802Z,18.43
2022-09-18T10:40:40.374Z,18.24
2022-09-18T10:43:30.390Z,18.11
2022-09-18T10:46:28.012Z,18.07
2022-09-18T10:49:20.726Z,18.06
2022-09-18T10:52:30.089Z,17.97
2022-09-18T10:55:24.844Z,17.90
2022-09-18T10:58:25.157Z,17.76
2022-09-18T11:01:14.213Z,17.61
2022-09-18T11:04:15.382Z,17.56
2022-09-18T11:07:07.562Z,17.49
2022-09-18T11:09:56.362Z,17.43
2022-09-18T11:12:55.668Z,17.43
2022-09-18T11:15:58.555Z,17.44
2022-09-18T11:18:48.230Z,17.49
2022-09-18T11:21:48.629Z,17.54
2022-09-18T11:24:42.046Z,17.45
2022-09-18T11:27:54.568Z,17.36
2022-09-18T11:30:43.992Z,17.33
2022-09-18T11:33:56.726Z,17.38
2022-09-18T11:36:56.748Z,17.42
2022-09-18T11:39:55.298Z,17.29
2022-09-18T11:42:45.852Z,17.12
2022-09-18T11:45:49.816Z,17.05
2022-09-18T11:49:15.227Z,17.02
2022-09-18T11:52:29.165Z,17.02
2022-09-18T11:55:41.237Z,17.02
2022-09-18T11:58:34.719Z,16.96
2022-09-18T12:01:38.823Z,16.94
2022-09-18T12:04:41.848Z,17.00
2022-09-18T12:07:56.456Z,16.94
2022-09-18T12:10:56.809Z,16.95
2022-09-18T12:13:56.531Z,16.96
2022-09-18T12:17:00.893Z,16.86
2022-09-18T12:20:10.329Z,16.74
2022-09-18T12:23:01.150Z,16.59
2022-09-18T12:26:27.978Z,16.47
2022-09-18T12:29:43.183Z,16.43
2022-09-18T12:32:48.315Z,16.49
2022-09-18T12:36:01.298Z,16.44
2022-09-18T12:39:13.147Z,16.29
2022-09-18T12:42:21.393Z,16.17
2022-09-18T12:45:15.479Z,16.09
2022-09-18T12:48:06.434Z,15.95
2022-09-18T12:50:57.756Z,15.80
2022-09-18T12:53:48.844Z,15.72
2022-09-18T12:56:54.986Z,15.60
2022-09-18T12:59:53.862Z,15.45
2022-09-18T13:02:51.150Z,15.37
2022-09-18T13:05:45.119Z,15.24
2022-09-18T13:08:58.278Z,15.20
2022-09-18T13:12:02.227Z,15.08
2022-09-18T13:15:00.093Z,14.96
2022-09-18T13:17:57.395Z,14.88
2022-09-18T13:20:46.853Z,14.79
2022-09-18T13:23:41.017Z,14.74
2022-09-18T13:26:32.136Z,14.72
2022-09-18T13:29:59.047Z,14.76
2022-09-18T13:32:46.947Z,14.80
2022-09-18T13:35:37.717Z,14.79
2022-09-18T13:38:28.514Z,14.82
2022-09-18T13:41:17.978Z,14.78
2022-09-18T13:44:06.143Z,14.72
2022-09-18T13:46:57.417Z,14.73
2022-09-18T13:49:58.695Z,14.73
2022-09-18T13:52:55.623Z,14.75
2022-09-18T13:55:50.301Z,14.75
2022-09-18T13:58:49.110Z,14.80
2022-09-18T14:01:58.877Z,14.85
2022-09-18T14:04:49.857Z,14.89
2022-09-18T14:07:37.664Z,14.99
2022-09-18T14:10:32.973Z,15.02
2022-09-18T14:13:52.120Z,15.01
2022-09-18T14:16:43.768Z,14.94
2022-09-18T14:19:33.929Z,14.86
2022-09-18T14:22:29.326Z,14.79
2022-09-18T14:25:47.063Z,14.82
2022-09-18T14:28:36.460Z,14.79
2022-09-18T14:31:30.382Z,14.77
2022-09-18T14:34:36.607Z,14.76
2022-09-18T14:37:30.771Z,14.69
2022-09-18T14:40:22.091Z,14.69
2022-09-18T14:43:17.352Z,14.68
2022-09-18T14:46:06.876Z,14.66
2022-09-18T14:48:55.665Z,14.64
2022-09-18T14:52:03.205Z,14.68
2022-09-18T14:54:54.859Z,14.64
2022-09-18T14:57:47.469Z,14.61
2022-09-18T15:00:37.546Z,14.63
2022-09-18T15:03:36.650Z,14.60
2022-09-18T15:06:28.122Z,14.58
2022-09-18T15:09:23.880Z,14.55
2022-09-18T15:12:19.090Z,14.56
2022-09-18T15:15:27.969Z,14.54
2022-09-18T15:18:24.174Z,14.55
2022-09-18T15:21:46.154Z,14.55
2022-09-18T15:24:34.150Z,14.53
2022-09-18T15:27:23.512Z,14.51
2022-09-18T15:30:17.072Z,14.48
2022-09-18T15:33:12.263Z,14.49
2022-09-18T15:36:00.170Z,14.44
2022-09-18T15:38:48.356Z,14.45
2022-09-18T15:41:36.201Z,14.48
2022-09-18T15:44:39.157Z,14.47
2022-09-18T15:47:34.768Z,14.48
2022-09-18T15:50:36.658Z,14.49
2022-09-18T15:53:27.597Z,14.48
2022-09-18T15:56:21.283Z,14.48
2022-09-18T15:59:22.894Z,14.49
2022-09-18T16:02:22.206Z,14.49
2022-09-18T16:05:18.186Z,14.48
2022-09-18T16:08:18.200Z,14.47
2022-09-18T16:11:06.923Z,14.45
2022-09-18T16:13:56.417Z,14.47
2022-09-18T16:16:44.298Z,14.51
2022-09-18T16:19:32.489Z,14.52
2022-09-18T16:22:20.709Z,14.55
2022-09-18T16:25:13.838Z,14.51
2022-09-18T16:28:06.654Z,14.51
2022-09-18T16:30:55.207Z,14.50
2022-09-18T16:34:01.416Z,14.55
2022-09-18T16:36:52.830Z,14.54
2022-09-18T16:39:40.928Z,14.58
2022-09-18T16:42:28.768Z,14.58
2022-09-18T16:45:16.938Z,14.60
2022-09-18T16:48:05.971Z,14.60
2022-09-18T16:50:53.969Z,14.58
2022-09-18T16:53:41.994Z,14.57
2022-09-18T16:56:35.725Z,14.54
2022-09-18T16:59:28.144Z,14.54
2022-09-18T17:02:20.032Z,14.61
2022-09-18T17:05:10.260Z,14.63
2022-09-18T17:07:58.403Z,14.68
2022-09-18T17:10:46.390Z,14.70
2022-09-18T17:13:34.228Z,14.74
2022-09-18T17:16:41.147Z,14.77
2022-09-18T17:19:29.137Z,14.79
2022-09-18T17:22:20.916Z,14.79
2022-09-18T17:25:11.640Z,14.81
2022-09-18T17:27:59.530Z,14.77
2022-09-18T17:30:47.861Z,14.74
2022-09-18T17:33:36.797Z,14.67
2022-09-18T17:36:24.916Z,14.66
2022-09-18T17:39:12.977Z,14.65
2022-09-18T17:42:01.142Z,14.67
2022-09-18T17:48:06.268Z,14.60
2022-09-18T17:51:02.165Z,14.62
2022-09-18T17:53:49.952Z,14.58
2022-09-18T17:56:37.959Z,14.54
2022-09-18T17:59:27.014Z,14.51
2022-09-18T18:02:14.888Z,14.50
2022-09-18T18:05:03.300Z,14.53
2022-09-18T18:07:51.450Z,14.58
2022-09-18T18:10:39.353Z,14.62
2022-09-18T18:13:27.327Z,14.68
2022-09-18T18:16:23.072Z,14.73
2022-09-18T18:19:13.067Z,14.73
2022-09-18T18:22:00.891Z,14.73
2022-09-18T18:24:49.722Z,14.75
2022-09-18T18:27:37.626Z,14.79
2022-09-18T18:30:25.495Z,14.80
2022-09-18T18:33:14.049Z,14.84
2022-09-18T18:36:11.622Z,14.85
2022-09-18T18:39:01.790Z,14.87
2022-09-18T18:41:50.597Z,14.89
2022-09-18T18:44:39.019Z,14.91
2022-09-18T18:47:29.137Z,14.93
2022-09-18T18:50:22.154Z,14.91
2022-09-18T18:53:10.105Z,14.93
2022-09-18T18:56:06.091Z,14.97
2022-09-18T18:58:58.958Z,14.98
2022-09-18T19:01:47.728Z,15.01
2022-09-18T19:04:36.498Z,15.02
2022-09-18T19:07:24.392Z,14.98
2022-09-18T19:10:12.186Z,14.96
2022-09-18T19:13:00.673Z,14.97
2022-09-18T19:15:48.772Z,14.94
2022-09-18T19:18:36.992Z,14.95
2022-09-18T19:21:25.307Z,14.95
2022-09-18T19:24:14.101Z,14.95
2022-09-18T19:27:01.882Z,14.92
2022-09-18T19:29:50.115Z,14.94
2022-09-18T19:32:38.164Z,14.94
2022-09-18T19:35:26.143Z,14.93
2022-09-18T19:38:16.389Z,14.91
2022-09-18T19:41:10.436Z,14.91
2022-09-18T19:43:59.370Z,14.86
2022-09-18T19:46:50.893Z,14.79
2022-09-18T19:49:39.635Z,14.80
2022-09-18T19:52:29.476Z,14.84
2022-09-18T19:55:19.879Z,14.86
2022-09-18T19:58:07.497Z,14.84
2022-09-18T20:00:55.297Z,14.82
2022-09-18T20:03:43.714Z,14.80
2022-09-18T20:06:32.990Z,14.78
2022-09-18T20:09:21.589Z,14.75
2022-09-18T20:12:09.943Z,14.75
2022-09-18T20:14:57.652Z,14.76
2022-09-18T20:17:45.538Z,14.76
2022-09-18T20:20:37.584Z,14.80
2022-09-18T20:23:25.201Z,14.82
2022-09-18T20:26:16.177Z,14.90
2022-09-18T20:29:04.031Z,14.91
2022-09-18T20:31:51.894Z,14.88
2022-09-18T20:34:40.053Z,14.88
2022-09-18T20:37:32.983Z,14.87
2022-09-18T20:40:20.975Z,14.88
2022-09-18T20:43:08.625Z,14.93
2022-09-18T20:46:01.871Z,14.98
2022-09-18T20:48:55.303Z,14.99
2022-09-18T20:51:43.254Z,14.96
2022-09-18T20:54:31.084Z,14.92
2022-09-18T20:57:19.287Z,14.93
2022-09-18T21:00:09.674Z,14.89
2022-09-18T21:02:58.368Z,14.84
2022-09-18T21:05:46.204Z,14.84
2022-09-18T21:08:34.274Z,14.84
2022-09-18T21:11:28.210Z,14.82
2022-09-18T21:14:16.446Z,14.75
2022-09-18T21:17:11.781Z,14.72
2022-09-18T21:19:59.654Z,14.69
2022-09-18T21:23:07.458Z,14.71
2022-09-18T21:25:55.655Z,14.70
2022-09-18T21:28:45.488Z,14.73
2022-09-18T21:31:36.619Z,14.76
2022-09-18T21:34:31.340Z,14.78
2022-09-18T21:37:19.235Z,14.82
2022-09-18T21:40:07.532Z,14.88
2022-09-18T21:42:55.872Z,14.95
2022-09-18T21:45:43.677Z,14.99
2022-09-18T21:48:32.712Z,15.03
2022-09-18T21:51:20.940Z,15.10
2022-09-18T21:54:14.870Z,15.18
2022-09-18T21:57:03.179Z,15.24
2022-09-18T21:59:51.167Z,15.28
2022-09-18T22:02:41.004Z,15.33
2022-09-18T22:05:29.389Z,15.35
2022-09-18T22:08:17.084Z,15.40
2022-09-18T22:11:04.902Z,15.41
2022-09-18T22:13:54.972Z,15.47
2022-09-18T22:16:47.254Z,15.49
2022-09-18T22:19:39.268Z,15.55
2022-09-18T22:22:29.562Z,15.56
2022-09-18T22:25:17.525Z,15.62
2022-09-18T22:28:05.851Z,15.62
2022-09-18T22:30:53.810Z,15.64
2022-09-18T22:33:41.448Z,15.64
2022-09-18T22:36:29.495Z,15.65
2022-09-18T22:39:18.753Z,15.62
2022-09-18T22:42:06.668Z,15.61
2022-09-18T22:44:55.026Z,15.63
2022-09-18T22:47:42.806Z,15.67
2022-09-18T22:50:30.526Z,15.68
2022-09-18T22:53:18.827Z,15.72
2022-09-18T22:56:09.590Z,15.72
2022-09-18T22:58:58.734Z,15.74
2022-09-18T23:01:51.687Z,15.75
2022-09-18T23:04:40.402Z,15.75
2022-09-18T23:07:28.989Z,15.75
2022-09-18T23:10:16.694Z,15.76
2022-09-18T23:13:05.129Z,15.72
2022-09-18T23:15:53.666Z,15.77
2022-09-18T23:18:42.229Z,15.77
2022-09-18T23:21:32.349Z,15.77
2022-09-18T23:24:20.849Z,15.78
2022-09-18T23:27:08.595Z,15.79
2022-09-18T23:29:56.408Z,15.79
2022-09-18T23:32:48.655Z,15.82
2022-09-18T23:35:37.162Z,15.83
2022-09-18T23:38:24.771Z,15.84
2022-09-18T23:41:15.621Z,15.81
2022-09-18T23:44:05.350Z,15.74
2022-09-18T23:46:53.202Z,15.71
2022-09-18T23:49:40.994Z,15.67
2022-09-18T23:52:30.348Z,15.63
2022-09-18T23:55:18.524Z,15.60
2022-09-18T23:58:06.237Z,15.61
